Time;durP1;ratioP1;P1;durP2;ratioP2;P2;SDS_P1;SDS_P2;PMS_P1;PMS_P2;Temp;Humidity;BMP_temperature;BMP_pressure;BME280_temperature;BME280_humidity;BME280_pressure;Samples;Min_cycle;Max_cycle;Signal;HPM_P1;HPM_P2
2023/04/21 00:00:19;;;;;;;0.10;0.10;;;7.20;99.90;;;;;;5062098;28;20230;-81
2023/04/21 00:02:45;;;;;;;0.10;0.10;;;7.20;99.90;;;;;;5064826;28;20245;-81
2023/04/21 00:05:12;;;;;;;0.10;0.10;;;7.20;99.90;;;;;;5064683;28;20258;-83
2023/04/21 00:07:39;;;;;;;0.10;0.10;;;7.10;99.90;;;;;;5063138;28;20192;-81
2023/04/21 00:10:09;;;;;;;0.10;0.10;;;7.10;99.90;;;;;;5065755;28;20227;-81
2023/04/21 00:12:34;;;;;;;0.10;0.10;;;7.10;99.90;;;;;;5065920;28;20603;-81
2023/04/21 00:15:00;;;;;;;0.10;0.10;;;7.10;99.90;;;;;;5059632;28;20209;-81
2023/04/21 00:17:26;;;;;;;0.10;0.10;;;7.00;99.90;;;;;;5060492;28;20287;-81
2023/04/21 00:19:52;;;;;;;0.10;0.10;;;7.00;99.90;;;;;;5065664;28;20252;-81
2023/04/21 00:22:17;;;;;;;0.10;0.10;;;6.90;99.90;;;;;;5066859;28;20184;-81
2023/04/21 00:24:44;;;;;;;0.10;0.10;;;6.80;99.90;;;;;;5065904;28;20193;-81
2023/04/21 00:27:10;;;;;;;0.10;0.10;;;6.90;99.90;;;;;;5064091;28;20200;-81
2023/04/21 00:29:36;;;;;;;0.10;0.10;;;6.90;99.90;;;;;;5062723;28;20192;-81
2023/04/21 00:32:02;;;;;;;0.10;0.10;;;7.00;99.90;;;;;;5064948;28;20196;-81
2023/04/21 00:34:28;;;;;;;0.10;0.10;;;7.00;99.90;;;;;;5063425;28;20195;-81
2023/04/21 00:36:54;;;;;;;0.10;0.10;;;6.90;99.90;;;;;;5063662;28;20216;-81
2023/04/21 00:39:19;;;;;;;0.10;0.10;;;7.00;99.90;;;;;;5061406;28;20215;-81
2023/04/21 00:41:45;;;;;;;0.10;0.10;;;7.00;99.90;;;;;;5062344;28;20188;-81
2023/04/21 00:44:10;;;;;;;0.10;0.10;;;6.80;99.90;;;;;;5065831;28;20538;-84
2023/04/21 00:46:37;;;;;;;0.10;0.10;;;6.80;99.90;;;;;;5063897;28;20223;-81
2023/04/21 00:49:06;;;;;;;0.10;0.10;;;6.80;99.90;;;;;;5065707;28;20193;-81
2023/04/21 00:51:33;;;;;;;0.03;0.03;;;6.80;99.90;;;;;;5063219;28;20586;-81
2023/04/21 00:54:01;;;;;;;0.00;0.00;;;6.80;99.90;;;;;;5065219;28;20633;-81
2023/04/21 00:56:29;;;;;;;0.10;0.10;;;6.70;99.90;;;;;;5063020;28;20345;-81
2023/04/21 00:58:57;;;;;;;0.10;0.10;;;6.70;99.90;;;;;;5064552;28;20195;-81
2023/04/21 01:01:23;;;;;;;0.10;0.10;;;6.70;99.90;;;;;;5064018;28;20192;-81
2023/04/21 01:03:49;;;;;;;0.10;0.10;;;6.70;99.90;;;;;;5062537;28;20206;-81
2023/04/21 01:06:14;;;;;;;0.10;0.10;;;6.70;99.90;;;;;;5066047;28;20210;-81
2023/04/21 01:08:41;;;;;;;0.10;0.10;;;6.70;99.90;;;;;;5063562;28;20273;-81
2023/04/21 01:11:11;;;;;;;0.10;0.10;;;6.70;99.90;;;;;;5066415;28;20181;-81
2023/04/21 01:13:37;;;;;;;0.10;0.10;;;6.70;99.90;;;;;;5063973;28;20633;-81
2023/04/21 01:16:02;;;;;;;0.10;0.10;;;6.70;99.90;;;;;;5064294;28;20242;-80
2023/04/21 01:18:29;;;;;;;0.10;0.10;;;6.60;99.90;;;;;;5065015;28;20189;-81
2023/04/21 01:20:54;;;;;;;0.10;0.10;;;6.50;99.90;;;;;;5080876;28;20219;-81
2023/04/21 01:23:20;;;;;;;0.10;0.10;;;6.50;99.90;;;;;;5063860;28;20188;-81
2023/04/21 01:25:46;;;;;;;0.10;0.10;;;6.50;99.90;;;;;;5061732;28;20211;-81
2023/04/21 01:28:12;;;;;;;0.10;0.10;;;6.50;99.90;;;;;;5064676;28;20187;-81
2023/04/21 01:30:37;;;;;;;0.10;0.10;;;6.50;99.90;;;;;;5062829;28;20539;-81
2023/04/21 01:33:03;;;;;;;0.10;0.10;;;6.60;99.90;;;;;;5061522;28;20657;-81
2023/04/21 01:35:29;;;;;;;0.10;0.10;;;6.50;99.90;;;;;;5062371;28;20223;-81
2023/04/21 01:37:54;;;;;;;0.10;0.10;;;6.50;99.90;;;;;;5063982;28;20187;-82
2023/04/21 01:40:20;;;;;;;0.10;0.10;;;6.70;99.90;;;;;;5062780;28;20216;-81
2023/04/21 01:42:45;;;;;;;0.10;0.10;;;6.70;99.90;;;;;;5058212;28;20203;-81
2023/04/21 01:45:11;;;;;;;0.10;0.10;;;6.80;99.90;;;;;;5062965;28;20192;-81
2023/04/21 01:47:37;;;;;;;0.10;0.10;;;6.80;99.90;;;;;;5060997;28;20234;-81
2023/04/21 01:50:02;;;;;;;0.10;0.10;;;6.90;99.90;;;;;;5065124;28;20711;-81
2023/04/21 01:52:28;;;;;;;0.10;0.10;;;6.90;99.90;;;;;;5059078;28;20572;-81
2023/04/21 01:54:54;;;;;;;0.10;0.10;;;7.00;99.90;;;;;;5063330;28;20188;-81
2023/04/21 01:57:19;;;;;;;0.10;0.10;;;6.90;99.90;;;;;;5065180;28;20203;-81
2023/04/21 01:59:45;;;;;;;0.10;0.10;;;6.90;99.90;;;;;;5065624;28;20549;-83
2023/04/21 02:02:11;;;;;;;0.10;0.10;;;6.90;99.90;;;;;;5059586;28;20193;-81
2023/04/21 02:04:36;;;;;;;0.10;0.10;;;6.90;99.90;;;;;;5065653;28;20175;-81
2023/04/21 02:07:02;;;;;;;0.10;0.10;;;6.90;99.90;;;;;;5066047;28;20329;-81
2023/04/21 02:09:27;;;;;;;0.10;0.10;;;7.00;99.90;;;;;;5063412;28;20248;-81
2023/04/21 02:11:55;;;;;;;0.10;0.10;;;7.00;99.90;;;;;;5063581;28;20192;-81
2023/04/21 02:14:21;;;;;;;0.10;0.10;;;7.00;99.90;;;;;;5061445;28;20196;-81
2023/04/21 02:16:47;;;;;;;0.10;0.10;;;6.90;99.90;;;;;;5061760;28;20284;-81
2023/04/21 02:19:12;;;;;;;0.10;0.10;;;6.90;99.90;;;;;;5060378;28;20207;-81
2023/04/21 02:21:38;;;;;;;0.10;0.10;;;6.90;99.90;;;;;;5056584;28;20199;-81
2023/04/21 02:24:03;;;;;;;0.10;0.10;;;7.00;99.90;;;;;;5059600;28;20191;-81
2023/04/21 02:26:29;;;;;;;0.10;0.10;;;7.00;99.90;;;;;;5060883;28;20220;-81
2023/04/21 02:28:55;;;;;;;0.10;0.10;;;7.00;99.90;;;;;;5057178;28;20285;-82
2023/04/21 02:31:20;;;;;;;0.10;0.10;;;7.10;99.90;;;;;;5063817;28;20192;-81
2023/04/21 02:33:46;;;;;;;0.10;0.10;;;7.00;99.90;;;;;;5063388;28;20216;-81
2023/04/21 02:36:12;;;;;;;0.10;0.10;;;7.00;99.90;;;;;;5061816;28;20212;-81
2023/04/21 02:38:37;;;;;;;0.10;0.10;;;7.00;99.90;;;;;;5060898;28;20188;-81
2023/04/21 02:41:03;;;;;;;2.00;1.90;;;6.80;99.90;;;;;;5062221;28;20203;-81
2023/04/21 02:43:28;;;;;;;0.10;0.10;;;6.60;99.90;;;;;;5061129;28;20238;-81
2023/04/21 02:45:54;;;;;;;0.07;0.07;;;6.50;99.90;;;;;;5058830;28;20204;-81
2023/04/21 02:48:21;;;;;;;0.10;0.10;;;6.40;99.90;;;;;;5065270;28;20236;-81
2023/04/21 02:50:48;;;;;;;0.10;0.10;;;6.30;99.90;;;;;;5063748;28;20192;-81
2023/04/21 02:53:15;;;;;;;0.10;0.10;;;6.40;99.90;;;;;;5061945;28;20194;-82
2023/04/21 02:55:40;;;;;;;0.10;0.10;;;6.30;99.90;;;;;;5057125;28;20294;-81
2023/04/21 02:58:06;;;;;;;0.10;0.10;;;6.30;99.90;;;;;;5060037;28;20751;-81
2023/04/21 03:00:31;;;;;;;0.10;0.10;;;6.40;99.90;;;;;;5063788;28;20254;-81
2023/04/21 03:02:57;;;;;;;0.10;0.10;;;6.50;99.90;;;;;;5064643;28;20218;-81
2023/04/21 03:05:23;;;;;;;0.10;0.10;;;6.70;99.90;;;;;;5060184;28;20216;-81
2023/04/21 03:07:49;;;;;;;0.10;0.10;;;6.70;99.90;;;;;;5063480;28;20210;-81
2023/04/21 03:10:15;;;;;;;0.10;0.10;;;6.70;99.90;;;;;;5064101;28;20708;-81
2023/04/21 03:12:40;;;;;;;0.10;0.10;;;6.70;99.90;;;;;;5061640;28;20286;-81
2023/04/21 03:15:06;;;;;;;0.10;0.10;;;6.60;99.90;;;;;;5059572;28;20199;-81
2023/04/21 03:17:32;;;;;;;0.10;0.10;;;6.50;99.90;;;;;;5060682;28;20180;-82
2023/04/21 03:19:57;;;;;;;0.10;0.10;;;6.40;99.90;;;;;;5059987;28;20246;-81
2023/04/21 03:22:23;;;;;;;0.10;0.10;;;6.50;99.90;;;;;;5062960;28;20184;-81
2023/04/21 03:24:48;;;;;;;0.10;0.10;;;6.50;99.90;;;;;;5061105;28;20189;-81
2023/04/21 03:27:14;;;;;;;0.10;0.10;;;6.50;99.90;;;;;;5060527;28;20207;-81
2023/04/21 03:29:39;;;;;;;0.10;0.10;;;6.50;99.90;;;;;;5058760;28;20684;-81
2023/04/21 03:32:05;;;;;;;0.10;0.10;;;6.60;99.90;;;;;;5067450;28;20201;-81
2023/04/21 03:34:30;;;;;;;0.10;0.10;;;6.60;99.90;;;;;;5069143;28;20185;-81
2023/04/21 03:36:56;;;;;;;0.10;0.10;;;6.50;99.90;;;;;;5065827;28;20215;-81
2023/04/21 03:39:21;;;;;;;0.00;0.00;;;6.20;99.90;;;;;;5062586;28;20199;-81
2023/04/21 03:41:47;;;;;;;0.10;0.10;;;6.20;99.90;;;;;;5066816;28;20191;-81
2023/04/21 03:44:12;;;;;;;0.10;0.10;;;6.40;99.90;;;;;;5064164;28;20295;-81
2023/04/21 03:46:38;;;;;;;0.10;0.10;;;6.40;99.90;;;;;;5083161;28;20209;-81
2023/04/21 03:49:04;;;;;;;0.10;0.10;;;6.50;99.90;;;;;;5066198;28;20214;-81
2023/04/21 03:51:31;;;;;;;0.10;0.10;;;6.60;99.90;;;;;;5064383;28;20184;-81
2023/04/21 03:53:56;;;;;;;0.00;0.00;;;6.60;99.90;;;;;;5062433;28;20228;-81
2023/04/21 03:56:22;;;;;;;0.10;0.10;;;6.60;99.90;;;;;;5063116;28;20601;-81
2023/04/21 03:58:48;;;;;;;0.10;0.10;;;6.60;99.90;;;;;;5065982;28;20185;-81
2023/04/21 04:01:13;;;;;;;0.10;0.10;;;6.50;99.90;;;;;;5061682;28;20308;-82
2023/04/21 04:03:39;;;;;;;0.10;0.10;;;6.50;99.90;;;;;;5065208;28;20857;-81
2023/04/21 04:06:05;;;;;;;0.10;0.10;;;6.40;99.90;;;;;;5066400;28;20203;-81
2023/04/21 04:08:30;;;;;;;0.10;0.10;;;6.20;99.90;;;;;;5063131;28;20640;-81
2023/04/21 04:10:56;;;;;;;0.10;0.10;;;6.10;99.90;;;;;;5067213;28;20262;-81
2023/04/21 04:13:23;;;;;;;0.10;0.10;;;5.90;99.90;;;;;;5061789;28;20186;-81
2023/04/21 04:15:49;;;;;;;0.10;0.10;;;5.80;99.90;;;;;;5064962;28;20294;-81
2023/04/21 04:18:14;;;;;;;0.10;0.10;;;5.60;99.90;;;;;;5064282;28;20192;-81
2023/04/21 04:20:40;;;;;;;0.10;0.10;;;5.50;99.90;;;;;;5062829;28;20718;-81
2023/04/21 04:23:05;;;;;;;0.10;0.10;;;5.50;99.90;;;;;;5063565;28;20237;-81
2023/04/21 04:25:32;;;;;;;0.10;0.10;;;5.50;99.90;;;;;;5065092;28;20200;-81
2023/04/21 04:27:57;;;;;;;0.10;0.10;;;5.40;99.90;;;;;;5064075;28;20230;-81
2023/04/21 04:30:26;;;;;;;0.10;0.10;;;5.50;99.90;;;;;;5064078;28;21236;-81
2023/04/21 04:32:52;;;;;;;0.10;0.10;;;5.50;99.90;;;;;;5067409;28;20186;-81
2023/04/21 04:35:18;;;;;;;0.10;0.10;;;5.60;99.90;;;;;;5062931;28;20552;-81
2023/04/21 04:37:44;;;;;;;0.10;0.10;;;5.60;99.90;;;;;;5063814;28;20192;-81
2023/04/21 04:40:13;;;;;;;0.10;0.10;;;5.60;99.90;;;;;;5065728;28;20227;-81
2023/04/21 04:42:39;;;;;;;0.10;0.10;;;5.60;99.90;;;;;;5060141;28;20204;-81
2023/04/21 04:45:07;;;;;;;0.00;0.00;;;5.60;99.90;;;;;;5060790;28;20214;-81
2023/04/21 04:47:33;;;;;;;0.10;0.10;;;5.80;99.90;;;;;;5059779;28;20377;-81
2023/04/21 04:49:58;;;;;;;0.10;0.10;;;5.80;99.90;;;;;;5060231;28;20262;-81
2023/04/21 04:52:24;;;;;;;0.10;0.10;;;5.90;99.90;;;;;;5063603;28;20786;-81
2023/04/21 04:54:50;;;;;;;0.10;0.10;;;6.00;99.90;;;;;;5067168;28;20199;-82
2023/04/21 04:57:15;;;;;;;0.10;0.10;;;6.00;99.90;;;;;;5063591;28;20677;-81
2023/04/21 04:59:41;;;;;;;0.10;0.10;;;6.10;99.90;;;;;;5065423;28;20203;-81
2023/04/21 05:02:06;;;;;;;0.10;0.10;;;6.10;99.90;;;;;;5065694;28;20191;-82
2023/04/21 05:04:33;;;;;;;0.10;0.10;;;6.20;99.90;;;;;;5065721;28;20241;-81
2023/04/21 05:06:58;;;;;;;0.10;0.10;;;6.20;99.90;;;;;;5061265;28;20210;-81
2023/04/21 05:09:24;;;;;;;0.10;0.10;;;6.30;99.90;;;;;;5066618;28;20198;-82
2023/04/21 05:11:50;;;;;;;0.10;0.10;;;6.30;99.90;;;;;;5058462;28;20274;-81
2023/04/21 05:14:16;;;;;;;0.10;0.10;;;6.40;99.90;;;;;;5061297;28;20193;-81
2023/04/21 05:16:45;;;;;;;0.10;0.10;;;6.40;99.90;;;;;;5064887;28;20213;-81
2023/04/21 05:19:10;;;;;;;0.10;0.10;;;6.50;99.90;;;;;;5059829;28;20196;-83
2023/04/21 05:21:36;;;;;;;0.10;0.10;;;6.50;99.90;;;;;;5061894;28;20252;-82
2023/04/21 05:24:02;;;;;;;0.10;0.10;;;6.60;99.90;;;;;;5059612;28;20302;-82
2023/04/21 05:26:28;;;;;;;0.10;0.10;;;6.70;99.90;;;;;;5058402;28;20213;-81
2023/04/21 05:28:55;;;;;;;0.10;0.10;;;6.80;99.90;;;;;;5065580;28;20191;-81
2023/04/21 05:31:24;;;;;;;0.10;0.10;;;6.80;99.90;;;;;;5067902;28;20287;-80
2023/04/21 05:33:50;;;;;;;0.10;0.10;;;7.00;99.90;;;;;;5066508;28;20561;-81
2023/04/21 05:36:16;;;;;;;0.10;0.10;;;7.10;99.90;;;;;;5063300;28;20220;-82
2023/04/21 05:38:42;;;;;;;0.10;0.10;;;7.20;99.90;;;;;;5059935;28;20206;-82
2023/04/21 05:41:09;;;;;;;0.10;0.10;;;7.20;99.90;;;;;;5064470;28;20686;-81
2023/04/21 05:43:34;;;;;;;0.10;0.10;;;7.20;99.90;;;;;;5064725;28;20188;-82
2023/04/21 05:46:08;;;;;;;0.10;0.10;;;7.20;99.90;;;;;;5062570;28;20698;-82
2023/04/21 05:48:33;;;;;;;0.10;0.10;;;7.30;99.90;;;;;;5061964;28;20802;-82
2023/04/21 05:51:10;;;;;;;0.10;0.10;;;7.40;99.90;;;;;;5064284;28;20200;-82
2023/04/21 05:53:39;;;;;;;0.10;0.10;;;7.50;99.90;;;;;;5064616;28;20208;-81
2023/04/21 05:56:05;;;;;;;0.03;0.03;;;7.60;99.90;;;;;;5061726;28;20554;-81
2023/04/21 05:58:32;;;;;;;0.10;0.10;;;7.70;99.90;;;;;;5064567;28;20238;-82
2023/04/21 06:00:58;;;;;;;0.10;0.10;;;7.80;99.90;;;;;;5063608;28;20655;-82
2023/04/21 06:03:26;;;;;;;0.10;0.10;;;7.80;99.90;;;;;;5061135;28;20217;-82
2023/04/21 06:05:55;;;;;;;0.10;0.10;;;7.90;99.90;;;;;;5063463;28;20212;-82
2023/04/21 06:08:21;;;;;;;0.10;0.10;;;7.90;99.90;;;;;;5061134;28;20200;-83
2023/04/21 06:10:47;;;;;;;0.10;0.10;;;8.00;99.90;;;;;;5066307;28;20195;-82
2023/04/21 06:13:12;;;;;;;0.10;0.10;;;8.00;99.90;;;;;;5062030;28;20192;-82
2023/04/21 06:15:38;;;;;;;0.10;0.10;;;8.00;99.90;;;;;;5065638;28;20619;-81
2023/04/21 06:18:04;;;;;;;0.10;0.10;;;8.00;99.90;;;;;;5067534;28;20188;-82
2023/04/21 06:20:29;;;;;;;0.07;0.07;;;7.90;99.90;;;;;;5062803;28;20275;-83
2023/04/21 06:22:55;;;;;;;0.03;0.03;;;7.80;99.90;;;;;;5065444;28;20267;-82
2023/04/21 06:25:20;;;;;;;3.50;3.40;;;7.80;99.90;;;;;;5062422;28;20564;-82
2023/04/21 06:27:46;;;;;;;0.10;0.10;;;8.00;99.90;;;;;;5061559;28;20623;-82
2023/04/21 06:30:13;;;;;;;0.10;0.10;;;8.20;99.90;;;;;;5059523;28;20185;-82
2023/04/21 06:32:38;;;;;;;0.10;0.10;;;8.30;99.90;;;;;;5058714;28;20196;-82
2023/04/21 06:35:04;;;;;;;0.10;0.10;;;8.60;99.90;;;;;;5065807;28;20548;-82
2023/04/21 06:37:30;;;;;;;0.10;0.10;;;8.90;99.90;;;;;;5066602;28;20185;-82
2023/04/21 06:39:56;;;;;;;0.10;0.10;;;9.10;99.90;;;;;;5062804;28;20212;-83
2023/04/21 06:42:21;;;;;;;0.10;0.10;;;9.40;99.90;;;;;;5063980;28;20188;-82
2023/04/21 06:44:47;;;;;;;0.10;0.10;;;9.60;99.90;;;;;;5059814;28;20534;-82
2023/04/21 06:47:12;;;;;;;0.10;0.10;;;9.80;99.90;;;;;;5063743;28;20262;-83
2023/04/21 06:49:38;;;;;;;0.10;0.10;;;9.70;99.90;;;;;;5060188;28;20188;-82
2023/04/21 06:52:04;;;;;;;0.00;0.00;;;9.70;99.90;;;;;;5066801;28;20184;-82
2023/04/21 06:54:30;;;;;;;0.10;0.10;;;9.70;99.90;;;;;;5063685;28;20185;-83
2023/04/21 06:56:56;;;;;;;0.10;0.10;;;9.60;99.90;;;;;;5067255;28;20270;-82
2023/04/21 06:59:22;;;;;;;0.10;0.10;;;9.70;99.90;;;;;;5058463;28;20189;-83
2023/04/21 07:01:51;;;;;;;0.10;0.10;;;9.80;99.90;;;;;;5062380;28;20272;-82
2023/04/21 07:04:20;;;;;;;0.10;0.10;;;9.90;99.90;;;;;;5064255;28;21002;-82
2023/04/21 07:06:46;;;;;;;0.10;0.10;;;10.00;99.90;;;;;;5064022;28;20227;-83
2023/04/21 07:09:11;;;;;;;0.10;0.10;;;9.90;99.90;;;;;;5059874;28;20249;-82
2023/04/21 07:11:37;;;;;;;0.10;0.10;;;9.60;99.90;;;;;;5064488;28;20185;-83
2023/04/21 07:14:03;;;;;;;0.10;0.10;;;9.50;99.90;;;;;;5061434;28;20193;-83
2023/04/21 07:16:29;;;;;;;0.00;0.00;;;9.50;99.90;;;;;;5060260;28;20204;-83
2023/04/21 07:18:55;;;;;;;0.10;0.10;;;9.70;99.90;;;;;;5055915;28;20195;-82
2023/04/21 07:21:20;;;;;;;0.10;0.10;;;9.80;99.90;;;;;;5060493;28;20204;-82
2023/04/21 07:23:46;;;;;;;0.10;0.10;;;10.00;99.90;;;;;;5064311;28;20216;-83
2023/04/21 07:26:11;;;;;;;0.10;0.10;;;10.10;99.90;;;;;;5065024;28;20212;-83
2023/04/21 07:28:39;;;;;;;0.00;0.00;;;10.40;99.90;;;;;;5069146;28;20548;-84
2023/04/21 07:31:05;;;;;;;0.10;0.10;;;10.40;99.90;;;;;;5067242;28;20192;-85
2023/04/21 07:33:31;;;;;;;0.10;0.10;;;10.50;99.90;;;;;;5065330;28;20183;-84
2023/04/21 07:35:58;;;;;;;0.10;0.10;;;10.50;99.90;;;;;;5071673;28;20212;-84
2023/04/21 07:38:23;;;;;;;0.10;0.10;;;10.70;99.90;;;;;;5063866;28;20512;-82
2023/04/21 07:40:49;;;;;;;0.10;0.10;;;10.80;99.90;;;;;;5066932;28;20212;-80
2023/04/21 07:43:15;;;;;;;0.00;0.00;;;11.00;99.90;;;;;;5065629;28;20483;-82
2023/04/21 07:45:41;;;;;;;0.10;0.10;;;11.10;99.90;;;;;;5063613;28;20200;-80
2023/04/21 07:48:06;;;;;;;0.10;0.10;;;11.20;99.90;;;;;;5061624;28;20180;-81
2023/04/21 07:50:35;;;;;;;0.10;0.10;;;11.50;99.90;;;;;;5059722;28;20185;-81
2023/04/21 07:53:00;;;;;;;0.10;0.10;;;11.40;99.90;;;;;;5059018;28;20675;-83
2023/04/21 07:55:27;;;;;;;0.10;0.10;;;11.50;99.90;;;;;;5057566;28;20205;-82
2023/04/21 07:57:52;;;;;;;0.10;0.10;;;11.70;99.90;;;;;;5064974;28;20213;-83
2023/04/21 08:00:18;;;;;;;0.10;0.10;;;11.90;99.90;;;;;;5063513;28;20846;-83
2023/04/21 08:02:44;;;;;;;0.10;0.10;;;11.80;99.90;;;;;;5066094;28;20239;-82
2023/04/21 08:05:09;;;;;;;0.10;0.10;;;11.90;99.90;;;;;;5066135;28;20249;-83
2023/04/21 08:07:36;;;;;;;0.10;0.10;;;11.90;99.90;;;;;;5064590;28;20182;-85
2023/04/21 08:10:02;;;;;;;0.10;0.10;;;11.80;99.90;;;;;;5067223;28;20192;-81
2023/04/21 08:12:28;;;;;;;0.10;0.10;;;11.70;99.90;;;;;;5061375;28;20517;-81
2023/04/21 08:14:54;;;;;;;0.10;0.10;;;11.80;99.90;;;;;;5063722;28;20224;-83
2023/04/21 08:17:19;;;;;;;0.10;0.10;;;12.00;99.90;;;;;;5061196;28;20212;-83
2023/04/21 08:19:45;;;;;;;0.10;0.10;;;12.10;99.90;;;;;;5068250;28;20216;-83
2023/04/21 08:22:10;;;;;;;0.03;0.03;;;12.10;99.90;;;;;;5069440;28;20177;-83
2023/04/21 08:24:36;;;;;;;0.10;0.10;;;12.30;99.90;;;;;;5066634;28;20754;-83
2023/04/21 08:27:02;;;;;;;0.10;0.10;;;12.30;99.90;;;;;;5065146;28;20245;-83
2023/04/21 08:29:27;;;;;;;0.10;0.10;;;12.40;99.90;;;;;;5070857;28;20190;-83
2023/04/21 08:31:53;;;;;;;0.10;0.10;;;12.30;99.90;;;;;;5066945;28;20185;-83
2023/04/21 08:34:19;;;;;;;0.10;0.10;;;12.10;99.90;;;;;;5068943;28;20173;-83
2023/04/21 08:36:46;;;;;;;0.10;0.10;;;12.00;99.90;;;;;;5068315;28;20277;-83
2023/04/21 08:39:12;;;;;;;0.10;0.10;;;12.20;99.90;;;;;;5066536;28;20597;-83
2023/04/21 08:41:40;;;;;;;0.10;0.10;;;12.40;99.90;;;;;;5061356;28;20269;-83
2023/04/21 08:44:06;;;;;;;0.10;0.10;;;12.40;99.90;;;;;;5067488;28;20273;-83
2023/04/21 08:46:33;;;;;;;0.10;0.10;;;12.50;99.90;;;;;;5066576;28;20940;-82
2023/04/21 08:49:00;;;;;;;0.10;0.10;;;13.00;99.90;;;;;;5067684;28;20175;-82
2023/04/21 08:51:27;;;;;;;0.10;0.10;;;13.50;99.90;;;;;;5065482;28;20212;-84
2023/04/21 08:53:54;;;;;;;0.10;0.10;;;14.20;99.90;;;;;;5065053;28;20247;-83
2023/04/21 08:56:19;;;;;;;0.10;0.10;;;14.60;99.90;;;;;;5064591;28;20737;-82
2023/04/21 08:58:45;;;;;;;0.10;0.10;;;14.60;99.90;;;;;;5064722;28;20188;-83
2023/04/21 09:01:11;;;;;;;0.10;0.10;;;14.30;99.90;;;;;;5063857;28;20203;-83
2023/04/21 09:03:36;;;;;;;0.10;0.10;;;14.00;99.90;;;;;;5066110;28;20225;-83
2023/04/21 09:06:05;;;;;;;0.10;0.10;;;14.80;99.90;;;;;;5069634;28;20290;-83
2023/04/21 09:08:32;;;;;;;0.10;0.10;;;14.80;99.90;;;;;;5069410;28;20654;-83
2023/04/21 09:11:00;;;;;;;0.10;0.10;;;14.20;99.90;;;;;;5068349;28;20779;-83
2023/04/21 09:13:33;;;;;;;0.07;0.07;;;13.70;99.90;;;;;;5069918;28;20261;-83
2023/04/21 09:15:59;;;;;;;0.10;0.10;;;13.80;99.90;;;;;;5069046;28;20211;-83
2023/04/21 09:18:30;;;;;;;0.10;0.10;;;14.20;99.90;;;;;;5066346;28;20181;-83
2023/04/21 09:21:13;;;;;;;0.10;0.10;;;13.90;99.90;;;;;;5064278;28;20199;-83
2023/04/21 09:23:46;;;;;;;0.10;0.10;;;13.90;99.90;;;;;;5065931;28;20204;-83
2023/04/21 09:26:12;;;;;;;0.10;0.10;;;13.70;99.90;;;;;;5068256;28;20197;-82
2023/04/21 09:28:43;;;;;;;0.10;0.10;;;14.00;99.90;;;;;;5062459;28;20180;-83
2023/04/21 09:31:16;;;;;;;0.10;0.10;;;14.60;99.90;;;;;;5062094;28;20254;-83
2023/04/21 09:33:50;;;;;;;0.10;0.10;;;15.30;99.90;;;;;;5066555;28;20193;-84
2023/04/21 09:36:20;;;;;;;0.10;0.10;;;15.00;99.90;;;;;;5065593;28;20292;-83
2023/04/21 09:39:05;;;;;;;0.10;0.10;;;15.30;99.90;;;;;;5060873;28;20184;-83
2023/04/21 09:41:31;;;;;;;0.10;0.10;;;15.50;99.90;;;;;;5064886;28;20208;-83
2023/04/21 09:44:00;;;;;;;0.10;0.10;;;15.00;99.90;;;;;;5066756;28;20264;-83
2023/04/21 09:46:28;;;;;;;0.10;0.10;;;14.90;99.90;;;;;;5067042;28;20203;-83
2023/04/21 09:48:55;;;;;;;0.10;0.10;;;14.40;99.90;;;;;;5064473;28;20185;-83
2023/04/21 09:51:23;;;;;;;0.10;0.10;;;15.30;99.90;;;;;;5064982;28;20181;-83
2023/04/21 09:53:56;;;;;;;0.10;0.10;;;15.50;99.90;;;;;;5066753;28;20195;-83
2023/04/21 09:56:24;;;;;;;0.10;0.10;;;15.80;99.90;;;;;;5063792;28;20594;-83
2023/04/21 09:58:56;;;;;;;0.10;0.10;;;15.90;99.90;;;;;;5067593;28;20658;-83
2023/04/21 10:01:24;;;;;;;0.10;0.10;;;15.70;99.90;;;;;;5065579;28;20670;-83
2023/04/21 10:03:51;;;;;;;0.10;0.10;;;15.20;99.90;;;;;;5068170;28;20573;-83
2023/04/21 10:06:17;;;;;;;0.10;0.10;;;14.40;99.90;;;;;;5065179;28;20209;-83
2023/04/21 10:08:43;;;;;;;0.10;0.10;;;15.40;99.90;;;;;;5066833;28;20254;-83
2023/04/21 10:11:10;;;;;;;0.10;0.10;;;15.70;99.90;;;;;;5065908;28;21148;-82
2023/04/21 10:13:36;;;;;;;0.10;0.10;;;16.30;99.90;;;;;;5067250;28;20264;-83
2023/04/21 10:16:07;;;;;;;0.10;0.10;;;16.40;99.90;;;;;;5063277;28;20250;-83
2023/04/21 10:18:44;;;;;;;0.10;0.10;;;16.10;99.90;;;;;;5067118;28;20186;-83
2023/04/21 10:21:12;;;;;;;0.10;0.10;;;15.40;99.90;;;;;;5067674;28;20235;-83
2023/04/21 10:23:45;;;;;;;0.10;0.10;;;15.60;99.90;;;;;;5068209;28;20283;-84
2023/04/21 10:26:16;;;;;;;0.10;0.10;;;15.80;99.90;;;;;;5067022;28;20200;-83
2023/04/21 10:28:56;;;;;;;0.10;0.10;;;15.40;99.90;;;;;;5068208;28;20181;-83
2023/04/21 10:31:32;;;;;;;1.43;1.43;;;15.30;99.90;;;;;;5066743;28;20272;-83
2023/04/21 10:34:07;;;;;;;0.10;0.10;;;14.90;99.90;;;;;;5068388;28;20273;-82
2023/04/21 10:36:53;;;;;;;0.10;0.10;;;15.50;99.90;;;;;;5065724;28;20205;-84
2023/04/21 10:39:51;;;;;;;0.10;0.10;;;15.90;99.90;;;;;;5052199;28;20545;-83
2023/04/21 10:42:23;;;;;;;0.10;0.10;;;15.80;99.90;;;;;;5049436;28;20200;-83
2023/04/21 10:45:01;;;;;;;0.10;0.10;;;16.20;99.90;;;;;;5064096;28;20181;-83
2023/04/21 10:47:42;;;;;;;0.10;0.10;;;15.70;99.90;;;;;;5066493;28;20612;-84
2023/04/21 10:50:17;;;;;;;0.10;0.10;;;16.20;99.90;;;;;;5065704;28;20169;-84
2023/04/21 10:52:51;;;;;;;0.10;0.10;;;15.30;99.90;;;;;;5061761;28;20283;-84
2023/04/21 10:55:16;;;;;;;0.07;0.07;;;15.30;99.90;;;;;;5065617;28;20208;-84
2023/04/21 10:57:44;;;;;;;2.30;2.10;;;16.10;99.90;;;;;;5064585;28;20234;-83
2023/04/21 11:00:16;;;;;;;0.10;0.10;;;15.50;99.90;;;;;;5065449;28;20259;-84
2023/04/21 11:02:42;;;;;;;0.10;0.10;;;15.90;99.90;;;;;;5064231;28;20216;-83
2023/04/21 11:05:08;;;;;;;1.90;1.80;;;15.50;99.90;;;;;;5065075;28;20173;-84
2023/04/21 11:07:34;;;;;;;0.10;0.10;;;15.50;99.90;;;;;;5065552;28;20192;-84
2023/04/21 11:10:02;;;;;;;0.10;0.10;;;15.80;99.90;;;;;;5056437;28;20195;-83
2023/04/21 11:12:33;;;;;;;0.10;0.10;;;15.50;99.90;;;;;;5058281;28;20230;-84
2023/04/21 11:15:01;;;;;;;0.10;0.10;;;14.80;99.90;;;;;;5065615;28;20185;-84
2023/04/21 11:17:27;;;;;;;0.10;0.10;;;15.10;99.90;;;;;;5066157;28;20181;-84
2023/04/21 11:19:55;;;;;;;0.10;0.10;;;15.10;99.90;;;;;;5062009;28;20333;-84
2023/04/21 11:22:22;;;;;;;0.10;0.10;;;15.50;99.90;;;;;;5058271;28;20203;-83
2023/04/21 11:24:52;;;;;;;0.10;0.10;;;15.70;99.90;;;;;;5060095;28;20177;-83
2023/04/21 11:27:18;;;;;;;0.10;0.10;;;15.50;99.90;;;;;;5064326;28;20239;-84
2023/04/21 11:29:45;;;;;;;0.10;0.10;;;15.30;99.90;;;;;;5065282;28;20216;-85
2023/04/21 11:32:11;;;;;;;0.83;0.83;;;15.00;99.90;;;;;;5064249;28;20175;-84
2023/04/21 11:34:37;;;;;;;0.10;0.10;;;15.30;99.90;;;;;;5063236;28;20189;-84
2023/04/21 11:37:03;;;;;;;0.10;0.10;;;15.80;99.90;;;;;;5063267;28;20216;-84
2023/04/21 11:39:29;;;;;;;0.57;0.57;;;15.50;99.90;;;;;;5064235;28;20181;-84
2023/04/21 11:41:55;;;;;;;0.10;0.10;;;15.10;99.90;;;;;;5061188;28;20272;-84
2023/04/21 11:44:35;;;;;;;0.10;0.10;;;15.40;99.90;;;;;;5065539;28;20173;-84
2023/04/21 11:47:18;;;;;;;0.10;0.10;;;16.00;99.90;;;;;;5064120;28;20266;-83
2023/04/21 11:49:45;;;;;;;0.10;0.10;;;15.90;99.90;;;;;;5061126;28;20306;-84
2023/04/21 11:52:19;;;;;;;0.10;0.10;;;16.00;99.90;;;;;;5066909;28;20236;-84
2023/04/21 11:54:45;;;;;;;0.10;0.10;;;16.60;99.90;;;;;;5067031;28;20268;-84
2023/04/21 11:57:10;;;;;;;2.97;2.87;;;16.70;99.90;;;;;;5071422;28;20288;-85
2023/04/21 11:59:36;;;;;;;0.10;0.10;;;16.20;99.90;;;;;;5070325;28;20181;-84
2023/04/21 12:02:01;;;;;;;0.10;0.10;;;15.70;99.90;;;;;;5069919;28;20204;-84
2023/04/21 12:04:27;;;;;;;0.10;0.10;;;15.70;99.90;;;;;;5063907;28;20214;-84
2023/04/21 12:06:58;;;;;;;0.10;0.10;;;16.10;99.90;;;;;;5069924;28;20213;-83
2023/04/21 12:09:24;;;;;;;0.33;0.33;;;15.90;99.90;;;;;;5083013;28;20222;-83
2023/04/21 12:11:52;;;;;;;0.10;0.10;;;16.00;99.90;;;;;;5064024;28;20242;-84
2023/04/21 12:14:19;;;;;;;0.10;0.10;;;16.20;99.90;;;;;;5066782;28;20714;-83
2023/04/21 12:16:49;;;;;;;0.10;0.10;;;16.90;99.90;;;;;;5069582;28;20712;-83
2023/04/21 12:19:22;;;;;;;0.10;0.10;;;16.50;99.90;;;;;;5068178;28;20911;-84
2023/04/21 12:21:53;;;;;;;0.10;0.10;;;17.00;99.90;;;;;;5063072;28;21374;-83
2023/04/21 12:24:18;;;;;;;0.10;0.10;;;17.10;99.90;;;;;;5065296;28;20544;-84
2023/04/21 12:26:44;;;;;;;0.10;0.10;;;17.80;99.90;;;;;;5070550;28;20208;-83
2023/04/21 12:29:09;;;;;;;0.20;0.20;;;17.50;99.90;;;;;;5068578;28;20192;-83
2023/04/21 12:31:35;;;;;;;0.10;0.10;;;16.80;99.90;;;;;;5060993;28;20250;-84
2023/04/21 12:34:00;;;;;;;0.10;0.10;;;16.30;99.90;;;;;;5059892;28;20234;-85
2023/04/21 12:36:26;;;;;;;0.10;0.10;;;16.70;99.90;;;;;;5059879;28;20877;-85
2023/04/21 12:38:52;;;;;;;0.10;0.10;;;17.00;99.90;;;;;;5061492;28;20193;-85
2023/04/21 12:41:17;;;;;;;0.10;0.10;;;17.20;99.90;;;;;;5058540;28;20563;-85
2023/04/21 12:43:43;;;;;;;0.10;0.10;;;17.30;99.90;;;;;;5059250;28;20192;-85
2023/04/21 12:46:09;;;;;;;0.77;0.77;;;17.30;99.90;;;;;;5058133;28;20202;-85
2023/04/21 12:48:36;;;;;;;0.10;0.10;;;17.00;99.90;;;;;;5060148;28;20635;-85
2023/04/21 12:51:02;;;;;;;0.10;0.10;;;17.00;99.90;;;;;;5061557;28;20225;-85